sensor_id;sensor_type;location;lat;lon;timestamp;temperature;humidity
57108;DHT22;42987;52.916;6.542;2023-07-13T00:01:29;16.20;99.90
57108;DHT22;42987;52.916;6.542;2023-07-13T00:03:57;16.20;99.90
57108;DHT22;42987;52.916;6.542;2023-07-13T00:06:23;16.20;99.90
57108;DHT22;42987;52.916;6.542;2023-07-13T00:08:49;16.10;99.90
57108;DHT22;42987;52.916;6.542;2023-07-13T00:11:15;16.20;99.90
57108;DHT22;42987;52.916;6.542;2023-07-13T00:13:42;16.20;99.90
57108;DHT22;42987;52.916;6.542;2023-07-13T00:16:09;16.10;99.90
57108;DHT22;42987;52.916;6.542;2023-07-13T00:18:35;16.10;99.90
57108;DHT22;42987;52.916;6.542;2023-07-13T00:21:01;16.20;99.90
57108;DHT22;42987;52.916;6.542;2023-07-13T00:23:38;16.20;99.90
57108;DHT22;42987;52.916;6.542;2023-07-13T00:26:07;16.20;99.90
57108;DHT22;42987;52.916;6.542;2023-07-13T00:28:33;16.20;99.90
57108;DHT22;42987;52.916;6.542;2023-07-13T00:30:59;16.20;99.90
57108;DHT22;42987;52.916;6.542;2023-07-13T00:33:27;16.20;99.90
57108;DHT22;42987;52.916;6.542;2023-07-13T00:35:57;16.20;99.90
57108;DHT22;42987;52.916;6.542;2023-07-13T00:38:23;16.30;99.90
57108;DHT22;42987;52.916;6.542;2023-07-13T00:40:49;16.30;99.90
57108;DHT22;42987;52.916;6.542;2023-07-13T00:43:21;16.30;99.90
57108;DHT22;42987;52.916;6.542;2023-07-13T00:48:16;16.30;99.90
57108;DHT22;42987;52.916;6.542;2023-07-13T00:50:44;16.30;99.90
57108;DHT22;42987;52.916;6.542;2023-07-13T00:53:10;16.30;99.90
57108;DHT22;42987;52.916;6.542;2023-07-13T00:55:37;16.30;99.90
57108;DHT22;42987;52.916;6.542;2023-07-13T00:58:04;16.20;99.90
57108;DHT22;42987;52.916;6.542;2023-07-13T01:00:36;16.30;99.90
57108;DHT22;42987;52.916;6.542;2023-07-13T01:03:04;16.20;99.90
57108;DHT22;42987;52.916;6.542;2023-07-13T01:05:34;16.20;99.90
57108;DHT22;42987;52.916;6.542;2023-07-13T01:08:02;16.20;99.90
57108;DHT22;42987;52.916;6.542;2023-07-13T01:10:31;16.20;99.90
57108;DHT22;42987;52.916;6.542;2023-07-13T01:13:05;16.20;99.90
57108;DHT22;42987;52.916;6.542;2023-07-13T01:15:45;16.20;99.90
57108;DHT22;42987;52.916;6.542;2023-07-13T01:18:17;16.20;99.90
57108;DHT22;42987;52.916;6.542;2023-07-13T01:20:56;16.20;99.90
57108;DHT22;42987;52.916;6.542;2023-07-13T01:23:23;16.10;99.90
57108;DHT22;42987;52.916;6.542;2023-07-13T01:25:51;16.20;99.90
57108;DHT22;42987;52.916;6.542;2023-07-13T01:28:17;16.10;99.90
57108;DHT22;42987;52.916;6.542;2023-07-13T01:30:44;16.10;99.90
57108;DHT22;42987;52.916;6.542;2023-07-13T01:33:13;16.10;99.90
57108;DHT22;42987;52.916;6.542;2023-07-13T01:35:39;16.10;99.90
57108;DHT22;42987;52.916;6.542;2023-07-13T01:38:05;16.10;99.90
57108;DHT22;42987;52.916;6.542;2023-07-13T01:40:31;16.00;99.90
57108;DHT22;42987;52.916;6.542;2023-07-13T01:42:58;16.00;99.90
57108;DHT22;42987;52.916;6.542;2023-07-13T01:45:24;16.00;99.90
57108;DHT22;42987;52.916;6.542;2023-07-13T01:47:50;16.00;99.90
57108;DHT22;42987;52.916;6.542;2023-07-13T01:50:16;15.90;99.90
57108;DHT22;42987;52.916;6.542;2023-07-13T01:52:41;15.90;99.90
57108;DHT22;42987;52.916;6.542;2023-07-13T01:55:10;15.90;99.90
57108;DHT22;42987;52.916;6.542;2023-07-13T01:57:36;16.00;99.90
57108;DHT22;42987;52.916;6.542;2023-07-13T02:00:06;15.90;99.90
57108;DHT22;42987;52.916;6.542;2023-07-13T02:02:35;15.90;99.90
57108;DHT22;42987;52.916;6.542;2023-07-13T02:05:01;15.90;99.90
57108;DHT22;42987;52.916;6.542;2023-07-13T02:07:27;15.90;99.90
57108;DHT22;42987;52.916;6.542;2023-07-13T02:09:53;15.80;99.90
57108;DHT22;42987;52.916;6.542;2023-07-13T02:12:19;15.90;99.90
57108;DHT22;42987;52.916;6.542;2023-07-13T02:14:45;15.80;99.90
57108;DHT22;42987;52.916;6.542;2023-07-13T02:17:11;15.80;99.90
57108;DHT22;42987;52.916;6.542;2023-07-13T02:19:36;15.80;99.90
57108;DHT22;42987;52.916;6.542;2023-07-13T02:22:02;15.80;99.90
57108;DHT22;42987;52.916;6.542;2023-07-13T02:24:28;15.80;99.90
57108;DHT22;42987;52.916;6.542;2023-07-13T02:26:54;15.80;99.90
57108;DHT22;42987;52.916;6.542;2023-07-13T02:29:20;15.80;99.90
57108;DHT22;42987;52.916;6.542;2023-07-13T02:31:45;15.70;99.90
57108;DHT22;42987;52.916;6.542;2023-07-13T02:34:11;15.70;99.90
57108;DHT22;42987;52.916;6.542;2023-07-13T02:36:37;15.70;99.90
57108;DHT22;42987;52.916;6.542;2023-07-13T02:39:04;15.70;99.90
57108;DHT22;42987;52.916;6.542;2023-07-13T02:41:30;15.70;99.90
57108;DHT22;42987;52.916;6.542;2023-07-13T02:43:58;15.70;99.90
57108;DHT22;42987;52.916;6.542;2023-07-13T02:46:33;15.70;99.90
57108;DHT22;42987;52.916;6.542;2023-07-13T02:48:59;15.70;99.90
57108;DHT22;42987;52.916;6.542;2023-07-13T02:51:26;15.60;99.90
57108;DHT22;42987;52.916;6.542;2023-07-13T02:53:52;15.60;99.90
57108;DHT22;42987;52.916;6.542;2023-07-13T02:56:24;15.60;99.90
57108;DHT22;42987;52.916;6.542;2023-07-13T02:58:50;15.60;99.90
57108;DHT22;42987;52.916;6.542;2023-07-13T03:01:16;15.50;99.90
57108;DHT22;42987;52.916;6.542;2023-07-13T03:03:45;15.50;99.90
57108;DHT22;42987;52.916;6.542;2023-07-13T03:06:12;15.50;99.90
57108;DHT22;42987;52.916;6.542;2023-07-13T03:08:38;15.50;99.90
57108;DHT22;42987;52.916;6.542;2023-07-13T03:11:07;15.50;99.90
57108;DHT22;42987;52.916;6.542;2023-07-13T03:13:34;15.50;99.90
57108;DHT22;42987;52.916;6.542;2023-07-13T03:16:00;15.50;99.90
57108;DHT22;42987;52.916;6.542;2023-07-13T03:18:27;15.50;99.90
57108;DHT22;42987;52.916;6.542;2023-07-13T03:20:53;15.50;99.90
57108;DHT22;42987;52.916;6.542;2023-07-13T03:23:20;15.50;99.90
57108;DHT22;42987;52.916;6.542;2023-07-13T03:25:46;15.50;99.90
57108;DHT22;42987;52.916;6.542;2023-07-13T03:28:12;15.50;99.90
57108;DHT22;42987;52.916;6.542;2023-07-13T03:30:38;15.50;99.90
57108;DHT22;42987;52.916;6.542;2023-07-13T03:33:04;15.50;99.90
57108;DHT22;42987;52.916;6.542;2023-07-13T03:35:30;15.50;99.90
57108;DHT22;42987;52.916;6.542;2023-07-13T03:37:58;15.50;99.90
57108;DHT22;42987;52.916;6.542;2023-07-13T03:40:25;15.60;99.90
57108;DHT22;42987;52.916;6.542;2023-07-13T03:42:52;15.50;99.90
57108;DHT22;42987;52.916;6.542;2023-07-13T03:45:18;15.50;99.90
57108;DHT22;42987;52.916;6.542;2023-07-13T03:47:44;15.60;99.90
57108;DHT22;42987;52.916;6.542;2023-07-13T03:50:13;15.60;99.90
57108;DHT22;42987;52.916;6.542;2023-07-13T03:52:39;15.60;99.90
57108;DHT22;42987;52.916;6.542;2023-07-13T03:55:05;15.60;99.90
57108;DHT22;42987;52.916;6.542;2023-07-13T03:57:31;15.60;99.90
57108;DHT22;42987;52.916;6.542;2023-07-13T03:59:57;15.60;99.90
57108;DHT22;42987;52.916;6.542;2023-07-13T04:02:23;15.60;99.90
57108;DHT22;42987;52.916;6.542;2023-07-13T04:04:49;15.60;99.90
57108;DHT22;42987;52.916;6.542;2023-07-13T04:07:14;15.60;99.90
57108;DHT22;42987;52.916;6.542;2023-07-13T04:09:40;15.50;99.90
57108;DHT22;42987;52.916;6.542;2023-07-13T04:12:07;15.50;99.90
57108;DHT22;42987;52.916;6.542;2023-07-13T04:14:33;15.50;99.90
57108;DHT22;42987;52.916;6.542;2023-07-13T04:16:59;15.50;99.90
57108;DHT22;42987;52.916;6.542;2023-07-13T04:19:25;15.40;99.90
57108;DHT22;42987;52.916;6.542;2023-07-13T04:21:51;15.40;99.90
57108;DHT22;42987;52.916;6.542;2023-07-13T04:24:16;15.40;99.90
57108;DHT22;42987;52.916;6.542;2023-07-13T04:26:42;15.40;99.90
57108;DHT22;42987;52.916;6.542;2023-07-13T04:29:08;15.40;99.90
57108;DHT22;42987;52.916;6.542;2023-07-13T04:31:34;15.40;99.90
57108;DHT22;42987;52.916;6.542;2023-07-13T04:33:59;15.40;99.90
57108;DHT22;42987;52.916;6.542;2023-07-13T04:36:25;15.40;99.90
57108;DHT22;42987;52.916;6.542;2023-07-13T04:38:54;15.40;99.90
57108;DHT22;42987;52.916;6.542;2023-07-13T04:41:21;15.40;99.90
57108;DHT22;42987;52.916;6.542;2023-07-13T04:43:48;15.40;99.90
57108;DHT22;42987;52.916;6.542;2023-07-13T04:46:15;15.40;99.90
57108;DHT22;42987;52.916;6.542;2023-07-13T04:48:42;15.50;99.90
57108;DHT22;42987;52.916;6.542;2023-07-13T04:51:08;15.50;99.90
57108;DHT22;42987;52.916;6.542;2023-07-13T04:53:34;15.50;99.90
57108;DHT22;42987;52.916;6.542;2023-07-13T04:56:01;15.60;99.90
57108;DHT22;42987;52.916;6.542;2023-07-13T04:58:27;15.60;99.90
57108;DHT22;42987;52.916;6.542;2023-07-13T05:00:59;15.60;99.90
57108;DHT22;42987;52.916;6.542;2023-07-13T05:03:25;15.70;99.90
57108;DHT22;42987;52.916;6.542;2023-07-13T05:05:59;15.70;99.90
57108;DHT22;42987;52.916;6.542;2023-07-13T05:08:26;15.70;99.90
57108;DHT22;42987;52.916;6.542;2023-07-13T05:10:52;15.70;99.90
57108;DHT22;42987;52.916;6.542;2023-07-13T05:13:19;15.70;99.90
57108;DHT22;42987;52.916;6.542;2023-07-13T05:15:45;15.70;99.90
57108;DHT22;42987;52.916;6.542;2023-07-13T05:18:11;15.70;99.90
57108;DHT22;42987;52.916;6.542;2023-07-13T05:20:36;15.70;99.90
57108;DHT22;42987;52.916;6.542;2023-07-13T05:23:02;15.80;99.90
57108;DHT22;42987;52.916;6.542;2023-07-13T05:25:31;15.80;99.90
57108;DHT22;42987;52.916;6.542;2023-07-13T05:27:57;15.80;99.90
57108;DHT22;42987;52.916;6.542;2023-07-13T05:30:22;15.80;99.90
57108;DHT22;42987;52.916;6.542;2023-07-13T05:32:48;15.90;99.90
57108;DHT22;42987;52.916;6.542;2023-07-13T05:35:14;15.90;99.90
57108;DHT22;42987;52.916;6.542;2023-07-13T05:37:40;15.90;99.90
57108;DHT22;42987;52.916;6.542;2023-07-13T05:40:06;16.00;99.90
57108;DHT22;42987;52.916;6.542;2023-07-13T05:42:32;16.00;99.90
57108;DHT22;42987;52.916;6.542;2023-07-13T05:44:58;16.00;99.90
57108;DHT22;42987;52.916;6.542;2023-07-13T05:47:23;16.00;99.90
57108;DHT22;42987;52.916;6.542;2023-07-13T05:49:49;16.10;99.90
57108;DHT22;42987;52.916;6.542;2023-07-13T05:52:15;16.10;99.90
57108;DHT22;42987;52.916;6.542;2023-07-13T05:54:41;16.20;99.90
57108;DHT22;42987;52.916;6.542;2023-07-13T05:57:07;16.20;99.90
57108;DHT22;42987;52.916;6.542;2023-07-13T05:59:35;16.30;99.90
57108;DHT22;42987;52.916;6.542;2023-07-13T06:02:02;16.30;99.90
57108;DHT22;42987;52.916;6.542;2023-07-13T06:04:28;16.40;99.90
57108;DHT22;42987;52.916;6.542;2023-07-13T06:06:54;16.40;99.90
57108;DHT22;42987;52.916;6.542;2023-07-13T06:09:19;16.60;99.90
57108;DHT22;42987;52.916;6.542;2023-07-13T06:11:45;16.60;99.90
57108;DHT22;42987;52.916;6.542;2023-07-13T06:14:11;16.70;99.90
57108;DHT22;42987;52.916;6.542;2023-07-13T06:16:36;16.70;99.90
57108;DHT22;42987;52.916;6.542;2023-07-13T06:19:02;16.80;99.90
57108;DHT22;42987;52.916;6.542;2023-07-13T06:21:28;16.90;99.90
57108;DHT22;42987;52.916;6.542;2023-07-13T06:23:54;16.90;99.90
57108;DHT22;42987;52.916;6.542;2023-07-13T06:26:20;17.00;99.90
57108;DHT22;42987;52.916;6.542;2023-07-13T06:28:47;17.10;99.90
57108;DHT22;42987;52.916;6.542;2023-07-13T06:31:13;17.10;99.90
57108;DHT22;42987;52.916;6.542;2023-07-13T06:33:39;17.20;99.90
57108;DHT22;42987;52.916;6.542;2023-07-13T06:36:06;17.20;99.90
57108;DHT22;42987;52.916;6.542;2023-07-13T06:38:33;17.30;99.90
57108;DHT22;42987;52.916;6.542;2023-07-13T06:40:59;17.40;99.90
57108;DHT22;42987;52.916;6.542;2023-07-13T06:43:25;17.50;99.90
57108;DHT22;42987;52.916;6.542;2023-07-13T06:45:54;17.50;99.90
57108;DHT22;42987;52.916;6.542;2023-07-13T06:48:26;17.70;99.90
57108;DHT22;42987;52.916;6.542;2023-07-13T06:50:52;17.80;99.90
57108;DHT22;42987;52.916;6.542;2023-07-13T06:53:19;17.90;99.90
57108;DHT22;42987;52.916;6.542;2023-07-13T06:55:46;18.10;99.90
57108;DHT22;42987;52.916;6.542;2023-07-13T06:58:12;18.30;99.90
57108;DHT22;42987;52.916;6.542;2023-07-13T07:00:38;18.40;99.90
57108;DHT22;42987;52.916;6.542;2023-07-13T07:03:05;18.60;99.90
57108;DHT22;42987;52.916;6.542;2023-07-13T07:05:31;18.60;99.90
57108;DHT22;42987;52.916;6.542;2023-07-13T07:08:00;18.60;99.90
57108;DHT22;42987;52.916;6.542;2023-07-13T07:10:26;18.60;99.90
57108;DHT22;42987;52.916;6.542;2023-07-13T07:12:52;18.60;99.90
57108;DHT22;42987;52.916;6.542;2023-07-13T07:15:21;18.60;99.90
57108;DHT22;42987;52.916;6.542;2023-07-13T07:17:50;18.60;99.90
57108;DHT22;42987;52.916;6.542;2023-07-13T07:20:16;18.60;99.90
57108;DHT22;42987;52.916;6.542;2023-07-13T07:22:41;18.60;99.90
57108;DHT22;42987;52.916;6.542;2023-07-13T07:25:10;18.50;99.90
57108;DHT22;42987;52.916;6.542;2023-07-13T07:27:35;18.50;99.90
57108;DHT22;42987;52.916;6.542;2023-07-13T07:30:01;18.50;99.90
57108;DHT22;42987;52.916;6.542;2023-07-13T07:32:29;18.70;99.90
57108;DHT22;42987;52.916;6.542;2023-07-13T07:34:55;19.00;99.90
57108;DHT22;42987;52.916;6.542;2023-07-13T07:37:21;19.00;99.90
57108;DHT22;42987;52.916;6.542;2023-07-13T07:39:46;18.90;99.90
57108;DHT22;42987;52.916;6.542;2023-07-13T07:42:12;18.80;99.90
57108;DHT22;42987;52.916;6.542;2023-07-13T07:44:39;18.60;99.90
57108;DHT22;42987;52.916;6.542;2023-07-13T07:47:06;18.40;99.90
57108;DHT22;42987;52.916;6.542;2023-07-13T07:49:31;18.20;99.90
57108;DHT22;42987;52.916;6.542;2023-07-13T07:51:57;18.20;99.90
57108;DHT22;42987;52.916;6.542;2023-07-13T07:54:23;18.10;99.90
57108;DHT22;42987;52.916;6.542;2023-07-13T07:56:49;18.20;99.90
57108;DHT22;42987;52.916;6.542;2023-07-13T07:59:15;18.40;99.90
57108;DHT22;42987;52.916;6.542;2023-07-13T08:01:41;18.50;99.90
57108;DHT22;42987;52.916;6.542;2023-07-13T08:04:06;18.60;99.90
57108;DHT22;42987;52.916;6.542;2023-07-13T08:06:33;18.70;99.90
57108;DHT22;42987;52.916;6.542;2023-07-13T08:09:00;18.90;99.90
57108;DHT22;42987;52.916;6.542;2023-07-13T08:11:27;19.00;99.90
57108;DHT22;42987;52.916;6.542;2023-07-13T08:13:52;19.10;99.90
57108;DHT22;42987;52.916;6.542;2023-07-13T08:16:22;19.10;99.90
57108;DHT22;42987;52.916;6.542;2023-07-13T08:18:48;19.00;99.90
57108;DHT22;42987;52.916;6.542;2023-07-13T08:21:14;18.90;99.90
57108;DHT22;42987;52.916;6.542;2023-07-13T08:23:39;18.80;99.90
57108;DHT22;42987;52.916;6.542;2023-07-13T08:26:06;18.70;99.90
57108;DHT22;42987;52.916;6.542;2023-07-13T08:28:32;18.60;99.90
57108;DHT22;42987;52.916;6.542;2023-07-13T08:31:06;18.50;99.90
57108;DHT22;42987;52.916;6.542;2023-07-13T08:33:34;18.40;99.90
57108;DHT22;42987;52.916;6.542;2023-07-13T08:36:00;18.10;99.90
57108;DHT22;42987;52.916;6.542;2023-07-13T08:38:26;17.90;99.90
57108;DHT22;42987;52.916;6.542;2023-07-13T08:40:54;17.50;99.90
57108;DHT22;42987;52.916;6.542;2023-07-13T08:43:25;17.30;99.90
57108;DHT22;42987;52.916;6.542;2023-07-13T08:48:58;17.00;99.90
57108;DHT22;42987;52.916;6.542;2023-07-13T08:54:03;16.90;99.90
57108;DHT22;42987;52.916;6.542;2023-07-13T08:56:30;16.90;99.90
57108;DHT22;42987;52.916;6.542;2023-07-13T08:59:17;17.00;99.90
57108;DHT22;42987;52.916;6.542;2023-07-13T09:01:56;17.10;99.90
57108;DHT22;42987;52.916;6.542;2023-07-13T09:04:29;17.00;99.90
57108;DHT22;42987;52.916;6.542;2023-07-13T09:07:05;17.10;99.90
57108;DHT22;42987;52.916;6.542;2023-07-13T09:14:56;17.00;99.90
57108;DHT22;42987;52.916;6.542;2023-07-13T09:17:29;17.10;99.90
57108;DHT22;42987;52.916;6.542;2023-07-13T09:22:34;17.10;99.90
57108;DHT22;42987;52.916;6.542;2023-07-13T09:27:44;17.10;99.90
57108;DHT22;42987;52.916;6.542;2023-07-13T09:30:25;17.10;99.90
57108;DHT22;42987;52.916;6.542;2023-07-13T09:32:54;17.00;99.90
57108;DHT22;42987;52.916;6.542;2023-07-13T09:35:27;17.00;99.90
57108;DHT22;42987;52.916;6.542;2023-07-13T09:38:13;16.80;99.90
57108;DHT22;42987;52.916;6.542;2023-07-13T09:41:15;16.70;99.90
57108;DHT22;42987;52.916;6.542;2023-07-13T09:44:28;16.60;99.90
57108;DHT22;42987;52.916;6.542;2023-07-13T09:46:56;16.60;99.90
57108;DHT22;42987;52.916;6.542;2023-07-13T09:49:32;16.80;99.90
57108;DHT22;42987;52.916;6.542;2023-07-13T09:52:04;17.00;99.90
57108;DHT22;42987;52.916;6.542;2023-07-13T09:54:34;17.40;99.90
57108;DHT22;42987;52.916;6.542;2023-07-13T09:57:01;17.70;99.90
57108;DHT22;42987;52.916;6.542;2023-07-13T09:59:39;18.00;99.90
57108;DHT22;42987;52.916;6.542;2023-07-13T10:02:30;18.20;99.90
57108;DHT22;42987;52.916;6.542;2023-07-13T10:05:16;18.50;99.90
57108;DHT22;42987;52.916;6.542;2023-07-13T10:07:45;18.70;99.90
57108;DHT22;42987;52.916;6.542;2023-07-13T10:10:20;18.90;99.90
57108;DHT22;42987;52.916;6.542;2023-07-13T10:12:47;19.10;99.90
57108;DHT22;42987;52.916;6.542;2023-07-13T10:15:22;19.30;99.90
57108;DHT22;42987;52.916;6.542;2023-07-13T10:17:54;19.60;99.90
57108;DHT22;42987;52.916;6.542;2023-07-13T10:20:21;19.80;99.90
57108;DHT22;42987;52.916;6.542;2023-07-13T10:23:02;20.00;99.90
57108;DHT22;42987;52.916;6.542;2023-07-13T10:25:37;20.20;99.90
57108;DHT22;42987;52.916;6.542;2023-07-13T10:28:31;20.50;99.90
57108;DHT22;42987;52.916;6.542;2023-07-13T10:30:59;20.70;99.90
57108;DHT22;42987;52.916;6.542;2023-07-13T10:33:25;20.80;99.90
57108;DHT22;42987;52.916;6.542;2023-07-13T10:38:48;21.00;99.90
57108;DHT22;42987;52.916;6.542;2023-07-13T10:41:19;21.10;99.90
57108;DHT22;42987;52.916;6.542;2023-07-13T10:43:54;21.30;99.90
57108;DHT22;42987;52.916;6.542;2023-07-13T10:46:23;21.40;99.90
57108;DHT22;42987;52.916;6.542;2023-07-13T10:48:58;21.50;99.90
57108;DHT22;42987;52.916;6.542;2023-07-13T10:51:25;21.70;99.90
57108;DHT22;42987;52.916;6.542;2023-07-13T10:54:31;21.80;99.90
57108;DHT22;42987;52.916;6.542;2023-07-13T10:57:16;21.60;99.90
57108;DHT22;42987;52.916;6.542;2023-07-13T10:59:48;21.50;99.90
57108;DHT22;42987;52.916;6.542;2023-07-13T11:02:28;21.40;99.90
57108;DHT22;42987;52.916;6.542;2023-07-13T11:04:55;21.60;99.90
57108;DHT22;42987;52.916;6.542;2023-07-13T11:07:28;21.80;99.90
57108;DHT22;42987;52.916;6.542;2023-07-13T11:09:59;21.90;99.90
57108;DHT22;42987;52.916;6.542;2023-07-13T11:12:52;22.00;99.90
57108;DHT22;42987;52.916;6.542;2023-07-13T11:15:33;21.90;99.90
57108;DHT22;42987;52.916;6.542;2023-07-13T11:18:21;21.60;99.90
57108;DHT22;42987;52.916;6.542;2023-07-13T11:20:48;21.40;99.90
57108;DHT22;42987;52.916;6.542;2023-07-13T11:25:42;21.10;99.90
57108;DHT22;42987;52.916;6.542;2023-07-13T11:30:41;20.80;99.90
57108;DHT22;42987;52.916;6.542;2023-07-13T11:35:59;20.70;99.90
57108;DHT22;42987;52.916;6.542;2023-07-13T11:41:22;20.90;99.90
57108;DHT22;42987;52.916;6.542;2023-07-13T11:44:02;20.90;99.90
57108;DHT22;42987;52.916;6.542;2023-07-13T11:46:30;20.90;99.90
57108;DHT22;42987;52.916;6.542;2023-07-13T11:48:56;20.70;99.90
57108;DHT22;42987;52.916;6.542;2023-07-13T11:51:35;20.70;99.90
57108;DHT22;42987;52.916;6.542;2023-07-13T11:56:50;20.40;99.90
57108;DHT22;42987;52.916;6.542;2023-07-13T11:59:16;20.30;99.90
57108;DHT22;42987;52.916;6.542;2023-07-13T12:01:47;20.30;99.90
57108;DHT22;42987;52.916;6.542;2023-07-13T12:04:27;20.30;99.90
57108;DHT22;42987;52.916;6.542;2023-07-13T12:07:03;20.50;99.90
57108;DHT22;42987;52.916;6.542;2023-07-13T12:09:29;20.50;99.90
57108;DHT22;42987;52.916;6.542;2023-07-13T12:11:57;20.40;99.90
57108;DHT22;42987;52.916;6.542;2023-07-13T12:14:25;20.40;99.90
57108;DHT22;42987;52.916;6.542;2023-07-13T12:16:52;20.30;99.90
57108;DHT22;42987;52.916;6.542;2023-07-13T12:19:27;20.30;99.90
57108;DHT22;42987;52.916;6.542;2023-07-13T12:21:56;20.30;99.90
57108;DHT22;42987;52.916;6.542;2023-07-13T12:24:23;20.20;99.90
57108;DHT22;42987;52.916;6.542;2023-07-13T12:27:02;20.20;99.90
57108;DHT22;42987;52.916;6.542;2023-07-13T12:29:31;20.10;99.90
57108;DHT22;42987;52.916;6.542;2023-07-13T12:31:57;20.30;99.90
57108;DHT22;42987;52.916;6.542;2023-07-13T12:34:24;20.70;99.90
57108;DHT22;42987;52.916;6.542;2023-07-13T12:36:52;21.10;99.90
57108;DHT22;42987;52.916;6.542;2023-07-13T12:39:25;21.50;99.90
57108;DHT22;42987;52.916;6.542;2023-07-13T12:41:54;21.90;99.90
57108;DHT22;42987;52.916;6.542;2023-07-13T12:44:40;22.20;99.90
57108;DHT22;42987;52.916;6.542;2023-07-13T12:47:13;22.50;99.90
57108;DHT22;42987;52.916;6.542;2023-07-13T12:49:50;22.70;99.90
57108;DHT22;42987;52.916;6.542;2023-07-13T12:52:23;22.70;99.10
57108;DHT22;42987;52.916;6.542;2023-07-13T12:54:58;22.80;98.10
57108;DHT22;42987;52.916;6.542;2023-07-13T12:57:26;22.70;97.90
57108;DHT22;42987;52.916;6.542;2023-07-13T12:59:53;22.70;98.50
57108;DHT22;42987;52.916;6.542;2023-07-13T13:02:30;22.70;98.70
57108;DHT22;42987;52.916;6.542;2023-07-13T13:04:58;22.70;97.40
57108;DHT22;42987;52.916;6.542;2023-07-13T13:07:25;22.50;96.30
57108;DHT22;42987;52.916;6.542;2023-07-13T13:09:51;22.20;96.10
57108;DHT22;42987;52.916;6.542;2023-07-13T13:12:19;22.10;95.70
57108;DHT22;42987;52.916;6.542;2023-07-13T13:14:44;22.20;97.00
57108;DHT22;42987;52.916;6.542;2023-07-13T13:17:24;22.40;96.70
57108;DHT22;42987;52.916;6.542;2023-07-13T13:19:51;22.70;96.40
57108;DHT22;42987;52.916;6.542;2023-07-13T13:22:20;22.80;95.40
57108;DHT22;42987;52.916;6.542;2023-07-13T13:24:46;22.90;95.00
57108;DHT22;42987;52.916;6.542;2023-07-13T13:27:16;22.80;94.10
57108;DHT22;42987;52.916;6.542;2023-07-13T13:29:43;22.90;93.00
57108;DHT22;42987;52.916;6.542;2023-07-13T13:32:14;22.80;93.40
57108;DHT22;42987;52.916;6.542;2023-07-13T13:34:40;22.80;92.90
57108;DHT22;42987;52.916;6.542;2023-07-13T13:37:23;22.70;94.50
57108;DHT22;42987;52.916;6.542;2023-07-13T13:39:50;22.80;95.40
57108;DHT22;42987;52.916;6.542;2023-07-13T13:42:17;23.00;95.00
57108;DHT22;42987;52.916;6.542;2023-07-13T13:44:43;23.00;95.00
57108;DHT22;42987;52.916;6.542;2023-07-13T13:49:48;22.60;94.20
57108;DHT22;42987;52.916;6.542;2023-07-13T13:52:14;22.50;94.80
57108;DHT22;42987;52.916;6.542;2023-07-13T13:54:41;22.40;95.90
57108;DHT22;42987;52.916;6.542;2023-07-13T13:57:08;22.40;95.00
57108;DHT22;42987;52.916;6.542;2023-07-13T13:59:33;22.30;95.80
57108;DHT22;42987;52.916;6.542;2023-07-13T14:02:32;22.40;95.20
57108;DHT22;42987;52.916;6.542;2023-07-13T14:05:05;22.50;94.30
57108;DHT22;42987;52.916;6.542;2023-07-13T14:07:33;22.50;95.00
57108;DHT22;42987;52.916;6.542;2023-07-13T14:10:00;22.40;95.90
57108;DHT22;42987;52.916;6.542;2023-07-13T14:12:27;22.40;96.00
57108;DHT22;42987;52.916;6.542;2023-07-13T14:14:57;22.40;96.90
57108;DHT22;42987;52.916;6.542;2023-07-13T14:17:25;22.40;96.50
57108;DHT22;42987;52.916;6.542;2023-07-13T14:19:53;22.40;96.30
57108;DHT22;42987;52.916;6.542;2023-07-13T14:22:26;22.30;96.30
57108;DHT22;42987;52.916;6.542;2023-07-13T14:24:53;22.20;96.30
57108;DHT22;42987;52.916;6.542;2023-07-13T14:27:20;22.20;96.90
57108;DHT22;42987;52.916;6.542;2023-07-13T14:29:46;22.20;97.20
57108;DHT22;42987;52.916;6.542;2023-07-13T14:32:12;22.40;96.90
57108;DHT22;42987;52.916;6.542;2023-07-13T14:34:39;22.50;96.20
57108;DHT22;42987;52.916;6.542;2023-07-13T14:37:08;22.50;95.40
57108;DHT22;42987;52.916;6.542;2023-07-13T14:39:34;22.50;94.70
57108;DHT22;42987;52.916;6.542;2023-07-13T14:42:00;22.30;95.10
57108;DHT22;42987;52.916;6.542;2023-07-13T14:44:29;22.20;95.60
57108;DHT22;42987;52.916;6.542;2023-07-13T14:46:59;22.10;96.60
57108;DHT22;42987;52.916;6.542;2023-07-13T14:52:01;22.00;97.40
57108;DHT22;42987;52.916;6.542;2023-07-13T14:54:29;22.00;97.30
57108;DHT22;42987;52.916;6.542;2023-07-13T14:56:55;22.00;96.90
57108;DHT22;42987;52.916;6.542;2023-07-13T14:59:20;22.00;96.20
57108;DHT22;42987;52.916;6.542;2023-07-13T15:01:48;22.00;97.50
57108;DHT22;42987;52.916;6.542;2023-07-13T15:04:15;22.00;97.10
57108;DHT22;42987;52.916;6.542;2023-07-13T15:06:57;22.10;96.40
57108;DHT22;42987;52.916;6.542;2023-07-13T15:09:25;22.20;96.80
57108;DHT22;42987;52.916;6.542;2023-07-13T15:11:58;22.20;96.40
57108;DHT22;42987;52.916;6.542;2023-07-13T15:14:24;22.40;96.20
57108;DHT22;42987;52.916;6.542;2023-07-13T15:16:53;22.60;96.30
57108;DHT22;42987;52.916;6.542;2023-07-13T15:19:19;22.70;95.20
57108;DHT22;42987;52.916;6.542;2023-07-13T15:21:47;22.60;95.40
57108;DHT22;42987;52.916;6.542;2023-07-13T15:24:14;22.60;95.00
57108;DHT22;42987;52.916;6.542;2023-07-13T15:26:40;22.60;94.10
57108;DHT22;42987;52.916;6.542;2023-07-13T15:29:08;22.50;94.80
57108;DHT22;42987;52.916;6.542;2023-07-13T15:31:35;22.50;96.00
57108;DHT22;42987;52.916;6.542;2023-07-13T15:34:09;22.50;96.80
57108;DHT22;42987;52.916;6.542;2023-07-13T15:36:36;22.60;96.50
57108;DHT22;42987;52.916;6.542;2023-07-13T15:39:02;22.70;96.70
57108;DHT22;42987;52.916;6.542;2023-07-13T15:41:28;22.70;95.20
57108;DHT22;42987;52.916;6.542;2023-07-13T15:43:56;22.60;94.20
57108;DHT22;42987;52.916;6.542;2023-07-13T15:46:27;22.60;94.70
57108;DHT22;42987;52.916;6.542;2023-07-13T15:48:55;22.70;94.70
57108;DHT22;42987;52.916;6.542;2023-07-13T15:51:29;22.70;95.60
57108;DHT22;42987;52.916;6.542;2023-07-13T15:53:57;22.70;96.30
57108;DHT22;42987;52.916;6.542;2023-07-13T15:56:27;22.70;96.30
57108;DHT22;42987;52.916;6.542;2023-07-13T15:58:55;22.60;94.80
57108;DHT22;42987;52.916;6.542;2023-07-13T16:01:22;22.40;94.40
57108;DHT22;42987;52.916;6.542;2023-07-13T16:03:49;22.20;95.30
57108;DHT22;42987;52.916;6.542;2023-07-13T16:06:37;22.10;95.70
57108;DHT22;42987;52.916;6.542;2023-07-13T16:09:06;22.10;96.10
57108;DHT22;42987;52.916;6.542;2023-07-13T16:11:37;22.10;96.80
57108;DHT22;42987;52.916;6.542;2023-07-13T16:14:04;22.20;96.00
57108;DHT22;42987;52.916;6.542;2023-07-13T16:16:33;22.20;95.80
57108;DHT22;42987;52.916;6.542;2023-07-13T16:19:04;22.20;96.10
57108;DHT22;42987;52.916;6.542;2023-07-13T16:21:33;22.20;96.20